sensor_id;sensor_type;location;lat;lon;timestamp;pressure;altitude;pressure_sealevel;temperature
30765;BMP180;494;48.744;10.106;2024-02-15T00:02:10;95312.00;;;10.70
30765;BMP180;494;48.744;10.106;2024-02-15T00:04:39;96178.00;;;11.30
30765;BMP180;494;48.744;10.106;2024-02-15T00:07:08;96166.00;;;11.60
30765;BMP180;494;48.744;10.106;2024-02-15T00:09:37;96262.00;;;10.80
30765;BMP180;494;48.744;10.106;2024-02-15T00:12:09;96061.00;;;9.10
30765;BMP180;494;48.744;10.106;2024-02-15T00:14:38;96214.00;;;9.10
30765;BMP180;494;48.744;10.106;2024-02-15T00:17:09;96123.00;;;8.70
30765;BMP180;494;48.744;10.106;2024-02-15T00:19:39;96241.00;;;11.60
30765;BMP180;494;48.744;10.106;2024-02-15T00:22:09;95405.00;;;11.60
30765;BMP180;494;48.744;10.106;2024-02-15T00:24:39;95693.00;;;11.50
30765;BMP180;494;48.744;10.106;2024-02-15T00:27:09;96272.00;;;11.40
30765;BMP180;494;48.744;10.106;2024-02-15T00:29:39;95307.00;;;9.10
30765;BMP180;494;48.744;10.106;2024-02-15T00:32:10;96152.00;;;11.10
30765;BMP180;494;48.744;10.106;2024-02-15T00:34:40;95413.00;;;9.40
30765;BMP180;494;48.744;10.106;2024-02-15T00:37:10;95991.00;;;11.50
30765;BMP180;494;48.744;10.106;2024-02-15T00:39:39;96200.00;;;8.40
30765;BMP180;494;48.744;10.106;2024-02-15T00:42:13;96249.00;;;8.30
30765;BMP180;494;48.744;10.106;2024-02-15T00:44:43;95530.00;;;11.50
30765;BMP180;494;48.744;10.106;2024-02-15T00:47:14;96232.00;;;10.70
30765;BMP180;494;48.744;10.106;2024-02-15T00:49:46;96214.00;;;8.50
30765;BMP180;494;48.744;10.106;2024-02-15T00:52:15;95634.00;;;11.50
30765;BMP180;494;48.744;10.106;2024-02-15T00:54:45;96134.00;;;8.40
30765;BMP180;494;48.744;10.106;2024-02-15T00:57:14;95974.00;;;10.60
30765;BMP180;494;48.744;10.106;2024-02-15T00:59:44;96168.00;;;9.00
30765;BMP180;494;48.744;10.106;2024-02-15T01:02:15;96267.00;;;11.60
30765;BMP180;494;48.744;10.106;2024-02-15T01:04:45;95392.00;;;10.70
30765;BMP180;494;48.744;10.106;2024-02-15T01:07:15;96296.00;;;8.50
30765;BMP180;494;48.744;10.106;2024-02-15T01:09:45;96258.00;;;11.60
30765;BMP180;494;48.744;10.106;2024-02-15T01:12:16;95592.00;;;10.90
30765;BMP180;494;48.744;10.106;2024-02-15T01:14:46;96213.00;;;10.90
30765;BMP180;494;48.744;10.106;2024-02-15T01:17:41;95151.00;;;11.50
30765;BMP180;494;48.744;10.106;2024-02-15T01:20:19;95636.00;;;8.20
30765;BMP180;494;48.744;10.106;2024-02-15T01:22:49;96350.00;;;8.90
30765;BMP180;494;48.744;10.106;2024-02-15T01:25:19;95575.00;;;11.20
30765;BMP180;494;48.744;10.106;2024-02-15T01:27:49;95505.00;;;11.20
30765;BMP180;494;48.744;10.106;2024-02-15T01:30:44;96373.00;;;11.20
30765;BMP180;494;48.744;10.106;2024-02-15T01:33:16;96215.00;;;10.40
30765;BMP180;494;48.744;10.106;2024-02-15T01:35:54;95432.00;;;10.40
30765;BMP180;494;48.744;10.106;2024-02-15T01:43:20;96165.00;;;9.10
30765;BMP180;494;48.744;10.106;2024-02-15T01:46:10;96296.00;;;11.40
30765;BMP180;494;48.744;10.106;2024-02-15T01:48:51;96232.00;;;11.30
30765;BMP180;494;48.744;10.106;2024-02-15T01:51:31;96207.00;;;10.70
30765;BMP180;494;48.744;10.106;2024-02-15T01:54:05;96400.00;;;11.50
30765;BMP180;494;48.744;10.106;2024-02-15T01:57:01;96091.00;;;11.40
30765;BMP180;494;48.744;10.106;2024-02-15T01:59:52;95452.00;;;8.00
30765;BMP180;494;48.744;10.106;2024-02-15T02:02:46;96297.00;;;10.50
30765;BMP180;494;48.744;10.106;2024-02-15T02:05:49;95487.00;;;8.20
30765;BMP180;494;48.744;10.106;2024-02-15T02:08:54;95406.00;;;10.50
30765;BMP180;494;48.744;10.106;2024-02-15T02:12:07;95569.00;;;11.40
30765;BMP180;494;48.744;10.106;2024-02-15T02:14:47;96283.00;;;10.60
30765;BMP180;494;48.744;10.106;2024-02-15T02:17:31;95426.00;;;11.40
30765;BMP180;494;48.744;10.106;2024-02-15T02:20:07;96080.00;;;11.40
30765;BMP180;494;48.744;10.106;2024-02-15T02:22:54;95552.00;;;9.60
30765;BMP180;494;48.744;10.106;2024-02-15T02:29:25;95210.00;;;11.40
30765;BMP180;494;48.744;10.106;2024-02-15T02:32:14;95097.00;;;10.70
30765;BMP180;494;48.744;10.106;2024-02-15T02:39:08;95425.00;;;11.20
30765;BMP180;494;48.744;10.106;2024-02-15T02:42:11;95178.00;;;11.20
30765;BMP180;494;48.744;10.106;2024-02-15T02:44:44;96085.00;;;8.60
30765;BMP180;494;48.744;10.106;2024-02-15T02:47:47;96100.00;;;11.40
30765;BMP180;494;48.744;10.106;2024-02-15T02:50:57;96080.00;;;11.40
30765;BMP180;494;48.744;10.106;2024-02-15T02:54:17;95354.00;;;11.00
30765;BMP180;494;48.744;10.106;2024-02-15T02:56:51;96293.00;;;8.40
30765;BMP180;494;48.744;10.106;2024-02-15T02:59:21;95608.00;;;7.70
30765;BMP180;494;48.744;10.106;2024-02-15T03:01:52;96183.00;;;7.80
30765;BMP180;494;48.744;10.106;2024-02-15T03:04:28;96269.00;;;7.70
30765;BMP180;494;48.744;10.106;2024-02-15T03:06:59;96227.00;;;7.30
30765;BMP180;494;48.744;10.106;2024-02-15T03:09:29;96198.00;;;9.90
30765;BMP180;494;48.744;10.106;2024-02-15T03:12:00;96262.00;;;10.80
30765;BMP180;494;48.744;10.106;2024-02-15T03:14:32;96309.00;;;9.80
30765;BMP180;494;48.744;10.106;2024-02-15T03:17:04;96192.00;;;10.40
30765;BMP180;494;48.744;10.106;2024-02-15T03:19:33;95843.00;;;7.60
30765;BMP180;494;48.744;10.106;2024-02-15T03:22:03;96185.00;;;11.00
30765;BMP180;494;48.744;10.106;2024-02-15T03:24:33;96064.00;;;7.60
30765;BMP180;494;48.744;10.106;2024-02-15T03:27:03;96033.00;;;11.00
30765;BMP180;494;48.744;10.106;2024-02-15T03:29:33;96181.00;;;9.50
30765;BMP180;494;48.744;10.106;2024-02-15T03:32:06;96200.00;;;11.00
30765;BMP180;494;48.744;10.106;2024-02-15T03:34:35;95939.00;;;9.10
30765;BMP180;494;48.744;10.106;2024-02-15T03:37:07;96133.00;;;8.70
30765;BMP180;494;48.744;10.106;2024-02-15T03:39:36;96200.00;;;10.70
30765;BMP180;494;48.744;10.106;2024-02-15T03:42:05;96204.00;;;11.00
30765;BMP180;494;48.744;10.106;2024-02-15T03:44:38;96307.00;;;10.50
30765;BMP180;494;48.744;10.106;2024-02-15T03:47:11;95119.00;;;9.60
30765;BMP180;494;48.744;10.106;2024-02-15T03:49:42;95499.00;;;10.20
30765;BMP180;494;48.744;10.106;2024-02-15T03:52:15;95396.00;;;11.00
30765;BMP180;494;48.744;10.106;2024-02-15T03:54:44;96148.00;;;9.00
30765;BMP180;494;48.744;10.106;2024-02-15T03:57:14;96197.00;;;8.70
30765;BMP180;494;48.744;10.106;2024-02-15T03:59:44;96151.00;;;8.30
30765;BMP180;494;48.744;10.106;2024-02-15T04:02:24;95155.00;;;10.80
30765;BMP180;494;48.744;10.106;2024-02-15T04:04:54;96299.00;;;9.90
30765;BMP180;494;48.744;10.106;2024-02-15T04:07:29;96176.00;;;10.70
30765;BMP180;494;48.744;10.106;2024-02-15T04:09:59;95425.00;;;9.40
30765;BMP180;494;48.744;10.106;2024-02-15T04:12:34;96019.00;;;8.50
30765;BMP180;494;48.744;10.106;2024-02-15T04:15:06;96212.00;;;10.60
30765;BMP180;494;48.744;10.106;2024-02-15T04:17:42;96185.00;;;7.20
30765;BMP180;494;48.744;10.106;2024-02-15T04:20:13;95514.00;;;7.60
30765;BMP180;494;48.744;10.106;2024-02-15T04:22:45;95505.00;;;7.90
30765;BMP180;494;48.744;10.106;2024-02-15T04:25:15;95298.00;;;8.40
30765;BMP180;494;48.744;10.106;2024-02-15T04:27:46;96228.00;;;10.40
30765;BMP180;494;48.744;10.106;2024-02-15T04:30:15;95304.00;;;6.90
30765;BMP180;494;48.744;10.106;2024-02-15T04:32:48;96230.00;;;9.30
30765;BMP180;494;48.744;10.106;2024-02-15T04:35:19;95508.00;;;10.00
30765;BMP180;494;48.744;10.106;2024-02-15T04:37:50;95287.00;;;7.50
30765;BMP180;494;48.744;10.106;2024-02-15T04:40:21;95385.00;;;10.10
30765;BMP180;494;48.744;10.106;2024-02-15T04:42:50;96187.00;;;8.10
30765;BMP180;494;48.744;10.106;2024-02-15T04:45:19;96150.00;;;10.00
30765;BMP180;494;48.744;10.106;2024-02-15T04:47:51;96227.00;;;6.60
30765;BMP180;494;48.744;10.106;2024-02-15T04:50:21;96127.00;;;6.50
30765;BMP180;494;48.744;10.106;2024-02-15T04:52:52;95528.00;;;9.30
30765;BMP180;494;48.744;10.106;2024-02-15T04:55:21;96337.00;;;9.90
30765;BMP180;494;48.744;10.106;2024-02-15T04:57:50;95268.00;;;6.50
30765;BMP180;494;48.744;10.106;2024-02-15T05:00:23;95733.00;;;5.80
30765;BMP180;494;48.744;10.106;2024-02-15T05:02:55;96258.00;;;6.80
30765;BMP180;494;48.744;10.106;2024-02-15T05:05:24;96335.00;;;7.60
30765;BMP180;494;48.744;10.106;2024-02-15T05:07:54;96184.00;;;8.90
30765;BMP180;494;48.744;10.106;2024-02-15T05:10:23;96319.00;;;9.80
30765;BMP180;494;48.744;10.106;2024-02-15T05:12:52;96097.00;;;7.90
30765;BMP180;494;48.744;10.106;2024-02-15T05:15:23;95135.00;;;6.70
30765;BMP180;494;48.744;10.106;2024-02-15T05:17:55;95298.00;;;7.80
30765;BMP180;494;48.744;10.106;2024-02-15T05:20:25;96248.00;;;9.30
30765;BMP180;494;48.744;10.106;2024-02-15T05:22:55;96191.00;;;9.40
30765;BMP180;494;48.744;10.106;2024-02-15T05:25:24;96232.00;;;6.50
30765;BMP180;494;48.744;10.106;2024-02-15T05:27:54;96132.00;;;9.10
30765;BMP180;494;48.744;10.106;2024-02-15T05:30:25;95547.00;;;9.80
30765;BMP180;494;48.744;10.106;2024-02-15T05:32:56;96134.00;;;10.00
30765;BMP180;494;48.744;10.106;2024-02-15T05:35:25;96282.00;;;6.10
30765;BMP180;494;48.744;10.106;2024-02-15T05:37:55;95136.00;;;7.20
30765;BMP180;494;48.744;10.106;2024-02-15T05:40:24;96186.00;;;9.10
30765;BMP180;494;48.744;10.106;2024-02-15T05:42:57;96140.00;;;6.50
30765;BMP180;494;48.744;10.106;2024-02-15T05:45:31;95367.00;;;10.00
30765;BMP180;494;48.744;10.106;2024-02-15T05:48:06;96121.00;;;10.00
30765;BMP180;494;48.744;10.106;2024-02-15T05:50:37;96163.00;;;9.80
30765;BMP180;494;48.744;10.106;2024-02-15T05:53:06;95442.00;;;7.20
30765;BMP180;494;48.744;10.106;2024-02-15T05:55:36;95328.00;;;9.90
30765;BMP180;494;48.744;10.106;2024-02-15T05:58:08;96190.00;;;8.00
30765;BMP180;494;48.744;10.106;2024-02-15T06:00:38;95143.00;;;9.70
30765;BMP180;494;48.744;10.106;2024-02-15T06:03:11;96230.00;;;9.80
30765;BMP180;494;48.744;10.106;2024-02-15T06:05:40;95567.00;;;9.60
30765;BMP180;494;48.744;10.106;2024-02-15T06:08:11;95672.00;;;6.30
30765;BMP180;494;48.744;10.106;2024-02-15T06:10:40;95449.00;;;9.50
30765;BMP180;494;48.744;10.106;2024-02-15T06:13:09;96173.00;;;6.90
30765;BMP180;494;48.744;10.106;2024-02-15T06:15:39;95579.00;;;9.10
30765;BMP180;494;48.744;10.106;2024-02-15T06:18:14;95570.00;;;5.40
30765;BMP180;494;48.744;10.106;2024-02-15T06:20:50;95546.00;;;7.10
30765;BMP180;494;48.744;10.106;2024-02-15T06:23:23;96307.00;;;8.10
30765;BMP180;494;48.744;10.106;2024-02-15T06:25:56;96292.00;;;7.10
30765;BMP180;494;48.744;10.106;2024-02-15T06:28:26;96244.00;;;8.90
30765;BMP180;494;48.744;10.106;2024-02-15T06:31:13;95706.00;;;8.40
30765;BMP180;494;48.744;10.106;2024-02-15T06:34:01;95278.00;;;8.20
30765;BMP180;494;48.744;10.106;2024-02-15T06:36:48;95329.00;;;9.20
30765;BMP180;494;48.744;10.106;2024-02-15T06:39:35;96236.00;;;8.40
30765;BMP180;494;48.744;10.106;2024-02-15T06:42:11;95215.00;;;9.20
30765;BMP180;494;48.744;10.106;2024-02-15T06:44:45;96125.00;;;8.40
30765;BMP180;494;48.744;10.106;2024-02-15T06:47:15;95555.00;;;8.40
30765;BMP180;494;48.744;10.106;2024-02-15T06:49:49;95376.00;;;8.60
30765;BMP180;494;48.744;10.106;2024-02-15T06:52:25;96200.00;;;5.90
30765;BMP180;494;48.744;10.106;2024-02-15T06:54:58;96443.00;;;8.20
30765;BMP180;494;48.744;10.106;2024-02-15T06:57:27;95547.00;;;9.30
30765;BMP180;494;48.744;10.106;2024-02-15T06:59:57;96267.00;;;7.60
30765;BMP180;494;48.744;10.106;2024-02-15T07:02:26;96300.00;;;8.10
30765;BMP180;494;48.744;10.106;2024-02-15T07:04:58;95991.00;;;9.40
30765;BMP180;494;48.744;10.106;2024-02-15T07:07:28;96007.00;;;7.70
30765;BMP180;494;48.744;10.106;2024-02-15T07:09:56;96067.00;;;9.40
30765;BMP180;494;48.744;10.106;2024-02-15T07:12:26;96219.00;;;7.60
30765;BMP180;494;48.744;10.106;2024-02-15T07:14:56;95379.00;;;6.90
30765;BMP180;494;48.744;10.106;2024-02-15T07:17:25;95334.00;;;8.60
30765;BMP180;494;48.744;10.106;2024-02-15T07:19:55;96020.00;;;9.30
30765;BMP180;494;48.744;10.106;2024-02-15T07:22:25;96237.00;;;6.20
30765;BMP180;494;48.744;10.106;2024-02-15T07:24:54;95973.00;;;8.40
30765;BMP180;494;48.744;10.106;2024-02-15T07:27:23;95451.00;;;9.10
30765;BMP180;494;48.744;10.106;2024-02-15T07:29:53;95941.00;;;9.30
30765;BMP180;494;48.744;10.106;2024-02-15T07:32:23;96232.00;;;9.70
30765;BMP180;494;48.744;10.106;2024-02-15T07:34:51;95761.00;;;9.90
30765;BMP180;494;48.744;10.106;2024-02-15T07:37:20;95947.00;;;8.90
30765;BMP180;494;48.744;10.106;2024-02-15T07:39:54;96112.00;;;9.30
30765;BMP180;494;48.744;10.106;2024-02-15T07:42:23;96105.00;;;9.60
30765;BMP180;494;48.744;10.106;2024-02-15T07:44:52;96019.00;;;9.20
30765;BMP180;494;48.744;10.106;2024-02-15T07:47:22;96001.00;;;9.70
30765;BMP180;494;48.744;10.106;2024-02-15T07:49:51;95871.00;;;9.90
30765;BMP180;494;48.744;10.106;2024-02-15T07:52:20;96114.00;;;9.90
30765;BMP180;494;48.744;10.106;2024-02-15T07:54:48;96120.00;;;9.90
30765;BMP180;494;48.744;10.106;2024-02-15T07:57:21;95923.00;;;9.90
30765;BMP180;494;48.744;10.106;2024-02-15T07:59:50;96019.00;;;8.80
30765;BMP180;494;48.744;10.106;2024-02-15T08:12:51;95836.00;;;12.00
30765;BMP180;494;48.744;10.106;2024-02-15T08:15:20;96081.00;;;12.50
30765;BMP180;494;48.744;10.106;2024-02-15T08:17:51;95993.00;;;12.20
30765;BMP180;494;48.744;10.106;2024-02-15T08:20:23;96088.00;;;13.10
30765;BMP180;494;48.744;10.106;2024-02-15T08:22:51;95956.00;;;13.70
30765;BMP180;494;48.744;10.106;2024-02-15T08:25:20;96063.00;;;14.10
30765;BMP180;494;48.744;10.106;2024-02-15T08:27:50;95703.00;;;14.20
30765;BMP180;494;48.744;10.106;2024-02-15T08:30:19;95993.00;;;15.20
30765;BMP180;494;48.744;10.106;2024-02-15T08:32:51;95938.00;;;15.80
30765;BMP180;494;48.744;10.106;2024-02-15T08:35:22;96039.00;;;16.30
30765;BMP180;494;48.744;10.106;2024-02-15T08:37:51;95906.00;;;16.50
30765;BMP180;494;48.744;10.106;2024-02-15T08:40:20;96033.00;;;16.90
30765;BMP180;494;48.744;10.106;2024-02-15T08:42:57;96023.00;;;17.20
30765;BMP180;494;48.744;10.106;2024-02-15T08:54:49;96006.00;;;19.50
30765;BMP180;494;48.744;10.106;2024-02-15T08:57:17;95994.00;;;19.50
30765;BMP180;494;48.744;10.106;2024-02-15T08:59:48;95702.00;;;19.70
30765;BMP180;494;48.744;10.106;2024-02-15T09:02:22;95994.00;;;19.70
30765;BMP180;494;48.744;10.106;2024-02-15T09:04:55;95930.00;;;18.80
30765;BMP180;494;48.744;10.106;2024-02-15T09:07:24;95866.00;;;17.00
30765;BMP180;494;48.744;10.106;2024-02-15T09:09:53;96101.00;;;18.10
30765;BMP180;494;48.744;10.106;2024-02-15T09:12:23;96177.00;;;18.50
30765;BMP180;494;48.744;10.106;2024-02-15T09:14:55;95445.00;;;19.30
30765;BMP180;494;48.744;10.106;2024-02-15T09:17:24;95450.00;;;16.40
30765;BMP180;494;48.744;10.106;2024-02-15T09:19:54;95996.00;;;19.20
30765;BMP180;494;48.744;10.106;2024-02-15T09:22:25;96084.00;;;17.10
30765;BMP180;494;48.744;10.106;2024-02-15T09:24:56;95929.00;;;17.00
30765;BMP180;494;48.744;10.106;2024-02-15T09:27:25;96022.00;;;19.90
30765;BMP180;494;48.744;10.106;2024-02-15T09:29:55;95797.00;;;20.40
30765;BMP180;494;48.744;10.106;2024-02-15T09:32:24;96064.00;;;20.40
30765;BMP180;494;48.744;10.106;2024-02-15T09:34:53;95465.00;;;21.50
30765;BMP180;494;48.744;10.106;2024-02-15T09:37:22;96048.00;;;19.90
30765;BMP180;494;48.744;10.106;2024-02-15T09:39:53;95995.00;;;22.80
30765;BMP180;494;48.744;10.106;2024-02-15T09:42:23;96034.00;;;22.90
30765;BMP180;494;48.744;10.106;2024-02-15T09:44:54;95963.00;;;21.70
30765;BMP180;494;48.744;10.106;2024-02-15T09:47:25;96003.00;;;21.60
30765;BMP180;494;48.744;10.106;2024-02-15T09:49:55;96039.00;;;23.30
30765;BMP180;494;48.744;10.106;2024-02-15T09:52:24;96075.00;;;21.60
30765;BMP180;494;48.744;10.106;2024-02-15T09:54:58;96113.00;;;18.90
30765;BMP180;494;48.744;10.106;2024-02-15T09:57:30;95905.00;;;21.40
30765;BMP180;494;48.744;10.106;2024-02-15T10:00:04;96097.00;;;21.30
30765;BMP180;494;48.744;10.106;2024-02-15T10:02:36;96119.00;;;21.20
30765;BMP180;494;48.744;10.106;2024-02-15T10:05:08;95895.00;;;20.20
30765;BMP180;494;48.744;10.106;2024-02-15T10:07:40;95815.00;;;21.30
30765;BMP180;494;48.744;10.106;2024-02-15T10:10:16;95697.00;;;21.80
30765;BMP180;494;48.744;10.106;2024-02-15T10:12:48;96021.00;;;22.50
30765;BMP180;494;48.744;10.106;2024-02-15T10:15:31;95965.00;;;22.90
30765;BMP180;494;48.744;10.106;2024-02-15T10:18:04;96019.00;;;24.30
30765;BMP180;494;48.744;10.106;2024-02-15T10:20:36;95656.00;;;23.70
30765;BMP180;494;48.744;10.106;2024-02-15T10:23:11;95536.00;;;25.80
30765;BMP180;494;48.744;10.106;2024-02-15T10:25:41;96007.00;;;24.40
30765;BMP180;494;48.744;10.106;2024-02-15T10:28:11;95826.00;;;26.00
30765;BMP180;494;48.744;10.106;2024-02-15T10:30:44;95461.00;;;26.00
30765;BMP180;494;48.744;10.106;2024-02-15T10:33:19;95697.00;;;27.40
30765;BMP180;494;48.744;10.106;2024-02-15T10:36:34;95977.00;;;28.20
30765;BMP180;494;48.744;10.106;2024-02-15T10:39:20;95686.00;;;25.90
30765;BMP180;494;48.744;10.106;2024-02-15T10:41:53;95485.00;;;26.40
30765;BMP180;494;48.744;10.106;2024-02-15T10:44:24;95812.00;;;28.10
30765;BMP180;494;48.744;10.106;2024-02-15T10:47:00;95511.00;;;28.00
30765;BMP180;494;48.744;10.106;2024-02-15T10:49:39;95645.00;;;28.30
30765;BMP180;494;48.744;10.106;2024-02-15T10:52:14;95964.00;;;28.30
30765;BMP180;494;48.744;10.106;2024-02-15T10:54:52;95960.00;;;26.70
30765;BMP180;494;48.744;10.106;2024-02-15T10:57:26;96120.00;;;28.80
30765;BMP180;494;48.744;10.106;2024-02-15T11:00:12;96056.00;;;29.50
30765;BMP180;494;48.744;10.106;2024-02-15T11:03:00;96050.00;;;28.90
30765;BMP180;494;48.744;10.106;2024-02-15T11:05:34;95957.00;;;27.00
30765;BMP180;494;48.744;10.106;2024-02-15T11:08:18;96146.00;;;28.90
30765;BMP180;494;48.744;10.106;2024-02-15T11:10:52;96005.00;;;28.10
30765;BMP180;494;48.744;10.106;2024-02-15T11:13:23;95450.00;;;27.90
30765;BMP180;494;48.744;10.106;2024-02-15T11:15:56;96031.00;;;28.00
30765;BMP180;494;48.744;10.106;2024-02-15T11:19:23;95417.00;;;27.50
30765;BMP180;494;48.744;10.106;2024-02-15T11:22:35;95194.00;;;27.90
30765;BMP180;494;48.744;10.106;2024-02-15T11:25:32;96023.00;;;27.40
30765;BMP180;494;48.744;10.106;2024-02-15T11:28:38;95927.00;;;29.20
30765;BMP180;494;48.744;10.106;2024-02-15T11:31:55;95917.00;;;29.30
30765;BMP180;494;48.744;10.106;2024-02-15T11:35:03;96004.00;;;28.60
30765;BMP180;494;48.744;10.106;2024-02-15T11:38:02;95483.00;;;28.90
30765;BMP180;494;48.744;10.106;2024-02-15T11:41:04;95479.00;;;29.70
30765;BMP180;494;48.744;10.106;2024-02-15T11:44:04;96039.00;;;29.80
30765;BMP180;494;48.744;10.106;2024-02-15T11:46:35;95912.00;;;29.00
30765;BMP180;494;48.744;10.106;2024-02-15T11:49:15;95548.00;;;27.90
30765;BMP180;494;48.744;10.106;2024-02-15T11:51:47;96021.00;;;26.80
30765;BMP180;494;48.744;10.106;2024-02-15T11:54:23;95605.00;;;28.90
30765;BMP180;494;48.744;10.106;2024-02-15T11:56:59;95505.00;;;29.00
30765;BMP180;494;48.744;10.106;2024-02-15T12:00:02;95905.00;;;29.70
30765;BMP180;494;48.744;10.106;2024-02-15T12:03:13;95951.00;;;29.70
30765;BMP180;494;48.744;10.106;2024-02-15T12:06:22;95466.00;;;27.90
30765;BMP180;494;48.744;10.106;2024-02-15T12:13:04;95427.00;;;28.50
30765;BMP180;494;48.744;10.106;2024-02-15T12:16:24;95316.00;;;28.60
30765;BMP180;494;48.744;10.106;2024-02-15T12:19:32;96065.00;;;28.50
30765;BMP180;494;48.744;10.106;2024-02-15T12:22:58;95889.00;;;28.70
30765;BMP180;494;48.744;10.106;2024-02-15T12:25:56;95138.00;;;27.70
30765;BMP180;494;48.744;10.106;2024-02-15T12:28:51;95896.00;;;30.30
30765;BMP180;494;48.744;10.106;2024-02-15T12:31:23;95886.00;;;30.70
30765;BMP180;494;48.744;10.106;2024-02-15T12:34:01;95817.00;;;31.40
30765;BMP180;494;48.744;10.106;2024-02-15T12:36:35;95766.00;;;29.90
30765;BMP180;494;48.744;10.106;2024-02-15T12:39:07;95332.00;;;29.30
30765;BMP180;494;48.744;10.106;2024-02-15T12:41:41;95906.00;;;30.90
30765;BMP180;494;48.744;10.106;2024-02-15T12:44:19;96023.00;;;31.20
30765;BMP180;494;48.744;10.106;2024-02-15T12:46:54;95955.00;;;31.80
30765;BMP180;494;48.744;10.106;2024-02-15T12:49:33;95888.00;;;31.90
30765;BMP180;494;48.744;10.106;2024-02-15T12:52:38;95823.00;;;30.50
30765;BMP180;494;48.744;10.106;2024-02-15T12:55:13;95697.00;;;29.60
30765;BMP180;494;48.744;10.106;2024-02-15T12:57:45;95829.00;;;29.70
30765;BMP180;494;48.744;10.106;2024-02-15T13:00:18;95527.00;;;29.50
30765;BMP180;494;48.744;10.106;2024-02-15T13:02:50;95784.00;;;30.00
30765;BMP180;494;48.744;10.106;2024-02-15T13:05:20;95855.00;;;29.70
30765;BMP180;494;48.744;10.106;2024-02-15T13:07:51;95877.00;;;28.50
30765;BMP180;494;48.744;10.106;2024-02-15T13:10:22;95924.00;;;29.20
30765;BMP180;494;48.744;10.106;2024-02-15T13:13:06;95592.00;;;29.40
30765;BMP180;494;48.744;10.106;2024-02-15T13:15:39;95853.00;;;28.50
30765;BMP180;494;48.744;10.106;2024-02-15T13:18:13;95386.00;;;27.50
30765;BMP180;494;48.744;10.106;2024-02-15T13:20:42;95947.00;;;28.20
30765;BMP180;494;48.744;10.106;2024-02-15T13:23:12;95877.00;;;29.80
30765;BMP180;494;48.744;10.106;2024-02-15T13:25:47;95933.00;;;30.60
30765;BMP180;494;48.744;10.106;2024-02-15T13:28:18;95892.00;;;29.90
30765;BMP180;494;48.744;10.106;2024-02-15T13:30:52;95879.00;;;30.40
30765;BMP180;494;48.744;10.106;2024-02-15T13:33:24;95777.00;;;29.80
30765;BMP180;494;48.744;10.106;2024-02-15T13:35:54;95720.00;;;29.60
30765;BMP180;494;48.744;10.106;2024-02-15T13:38:23;95840.00;;;28.80
30765;BMP180;494;48.744;10.106;2024-02-15T13:40:52;95216.00;;;26.90
30765;BMP180;494;48.744;10.106;2024-02-15T13:43:23;95755.00;;;26.10
30765;BMP180;494;48.744;10.106;2024-02-15T13:45:54;95796.00;;;26.20
30765;BMP180;494;48.744;10.106;2024-02-15T13:48:30;95844.00;;;26.20
30765;BMP180;494;48.744;10.106;2024-02-15T13:51:00;95944.00;;;24.50
30765;BMP180;494;48.744;10.106;2024-02-15T13:53:28;95589.00;;;23.70
30765;BMP180;494;48.744;10.106;2024-02-15T13:55:57;95953.00;;;22.60
30765;BMP180;494;48.744;10.106;2024-02-15T13:58:27;95920.00;;;23.10
30765;BMP180;494;48.744;10.106;2024-02-15T14:00:58;95382.00;;;22.90
30765;BMP180;494;48.744;10.106;2024-02-15T14:03:32;95858.00;;;23.40
30765;BMP180;494;48.744;10.106;2024-02-15T14:06:07;95352.00;;;22.60
30765;BMP180;494;48.744;10.106;2024-02-15T14:08:50;95732.00;;;22.50
30765;BMP180;494;48.744;10.106;2024-02-15T14:11:21;95503.00;;;21.90
30765;BMP180;494;48.744;10.106;2024-02-15T14:13:50;95434.00;;;21.60
30765;BMP180;494;48.744;10.106;2024-02-15T14:16:27;95568.00;;;21.30
30765;BMP180;494;48.744;10.106;2024-02-15T14:19:00;95859.00;;;21.40
30765;BMP180;494;48.744;10.106;2024-02-15T14:21:32;95836.00;;;21.10
30765;BMP180;494;48.744;10.106;2024-02-15T14:24:07;95613.00;;;21.00
30765;BMP180;494;48.744;10.106;2024-02-15T14:26:37;95666.00;;;19.40
30765;BMP180;494;48.744;10.106;2024-02-15T14:29:06;95204.00;;;20.60
30765;BMP180;494;48.744;10.106;2024-02-15T14:31:38;95864.00;;;20.30
30765;BMP180;494;48.744;10.106;2024-02-15T14:34:24;95707.00;;;20.00
30765;BMP180;494;48.744;10.106;2024-02-15T14:36:53;95632.00;;;17.90
30765;BMP180;494;48.744;10.106;2024-02-15T14:39:22;95682.00;;;19.80
30765;BMP180;494;48.744;10.106;2024-02-15T14:41:52;95750.00;;;19.70
30765;BMP180;494;48.744;10.106;2024-02-15T14:44:22;95460.00;;;19.20
30765;BMP180;494;48.744;10.106;2024-02-15T14:46:54;95568.00;;;18.80
30765;BMP180;494;48.744;10.106;2024-02-15T14:49:22;95255.00;;;18.50
30765;BMP180;494;48.744;10.106;2024-02-15T14:51:52;95756.00;;;18.20
30765;BMP180;494;48.744;10.106;2024-02-15T14:54:21;95884.00;;;18.50
30765;BMP180;494;48.744;10.106;2024-02-15T14:56:50;95571.00;;;17.10
30765;BMP180;494;48.744;10.106;2024-02-15T14:59:22;95280.00;;;17.10
30765;BMP180;494;48.744;10.106;2024-02-15T15:01:53;95702.00;;;17.40
30765;BMP180;494;48.744;10.106;2024-02-15T15:04:29;95631.00;;;17.70
30765;BMP180;494;48.744;10.106;2024-02-15T15:07:16;95586.00;;;18.10
30765;BMP180;494;48.744;10.106;2024-02-15T15:10:03;94963.00;;;18.30
30765;BMP180;494;48.744;10.106;2024-02-15T15:13:03;95801.00;;;18.10
30765;BMP180;494;48.744;10.106;2024-02-15T15:15:32;95752.00;;;17.60
30765;BMP180;494;48.744;10.106;2024-02-15T15:18:04;95675.00;;;17.90
30765;BMP180;494;48.744;10.106;2024-02-15T15:20:33;95364.00;;;17.90
30765;BMP180;494;48.744;10.106;2024-02-15T15:23:05;95444.00;;;17.90
30765;BMP180;494;48.744;10.106;2024-02-15T15:25:34;95669.00;;;17.90
30765;BMP180;494;48.744;10.106;2024-02-15T15:28:05;95155.00;;;18.00
30765;BMP180;494;48.744;10.106;2024-02-15T15:30:34;95293.00;;;17.50
30765;BMP180;494;48.744;10.106;2024-02-15T15:33:05;95815.00;;;17.90
30765;BMP180;494;48.744;10.106;2024-02-15T15:35:37;95741.00;;;15.00
30765;BMP180;494;48.744;10.106;2024-02-15T15:38:07;95917.00;;;14.90
30765;BMP180;494;48.744;10.106;2024-02-15T15:40:36;95853.00;;;17.30
30765;BMP180;494;48.744;10.106;2024-02-15T15:43:06;95814.00;;;17.60
30765;BMP180;494;48.744;10.106;2024-02-15T15:45:36;95319.00;;;14.30
30765;BMP180;494;48.744;10.106;2024-02-15T15:48:07;95865.00;;;17.30
30765;BMP180;494;48.744;10.106;2024-02-15T15:50:37;94889.00;;;17.30